createdAt,value
2019-05-13T00:01:34.546Z,7.29
2019-05-13T00:04:03.902Z,7.25
2019-05-13T00:06:34.362Z,7.17
2019-05-13T00:09:06.563Z,7.06
2019-05-13T00:11:35.733Z,6.92
2019-05-13T00:14:04.875Z,6.83
2019-05-13T00:16:34.309Z,6.78
2019-05-13T00:19:04.174Z,6.71
2019-05-13T00:21:34.021Z,6.62
2019-05-13T00:24:04.170Z,6.51
2019-05-13T00:26:33.895Z,6.54
2019-05-13T00:29:04.196Z,6.60
2019-05-13T00:31:33.655Z,6.54
2019-05-13T00:34:03.717Z,6.52
2019-05-13T00:36:33.728Z,6.45
2019-05-13T00:39:04.001Z,6.32
2019-05-13T00:41:33.831Z,6.16
2019-05-13T00:44:03.801Z,6.18
2019-05-13T00:46:34.011Z,6.20
2019-05-13T00:49:04.761Z,6.20
2019-05-13T00:51:34.221Z,6.22
2019-05-13T00:54:04.340Z,6.24
2019-05-13T00:56:34.496Z,6.14
2019-05-13T00:59:04.128Z,6.10
2019-05-13T01:01:33.621Z,6.12
2019-05-13T01:04:04.029Z,6.15
2019-05-13T01:06:34.073Z,6.12
2019-05-13T01:09:05.385Z,6.09
2019-05-13T01:11:34.729Z,6.08
2019-05-13T01:14:04.380Z,6.07
2019-05-13T01:16:34.132Z,6.06
2019-05-13T01:19:04.180Z,6.03
2019-05-13T01:21:34.508Z,5.85
2019-05-13T01:24:04.009Z,5.66
2019-05-13T01:26:33.771Z,5.53
2019-05-13T01:29:04.130Z,5.36
2019-05-13T01:31:34.352Z,5.35
2019-05-13T01:34:04.175Z,5.27
2019-05-13T01:36:34.258Z,5.21
2019-05-13T01:39:05.644Z,5.14
2019-05-13T01:41:35.342Z,5.12
2019-05-13T01:44:05.020Z,5.11
2019-05-13T01:46:34.795Z,5.18
2019-05-13T01:49:05.055Z,5.28
2019-05-13T01:51:34.330Z,5.23
2019-05-13T01:54:04.188Z,5.26
2019-05-13T01:56:34.027Z,5.24
2019-05-13T01:59:03.785Z,5.21
2019-05-13T02:01:33.704Z,5.23
2019-05-13T02:04:03.987Z,5.25
2019-05-13T02:06:33.848Z,5.24
2019-05-13T02:09:04.878Z,5.18
2019-05-13T02:11:34.231Z,5.14
2019-05-13T02:14:05.694Z,5.15
2019-05-13T02:16:34.555Z,5.08
2019-05-13T02:19:04.050Z,5.06
2019-05-13T02:21:33.727Z,5.06
2019-05-13T02:24:04.360Z,5.01
2019-05-13T02:26:34.509Z,5.03
2019-05-13T02:29:03.958Z,5.03
2019-05-13T02:31:45.247Z,5.05
2019-05-13T02:34:03.910Z,5.01
2019-05-13T02:36:33.323Z,5.07
2019-05-13T02:39:03.669Z,5.06
2019-05-13T02:41:34.124Z,5.02
2019-05-13T02:44:03.938Z,4.93
2019-05-13T02:46:34.072Z,4.89
2019-05-13T02:49:03.565Z,4.85
2019-05-13T02:51:32.999Z,4.76
2019-05-13T02:54:03.501Z,4.73
2019-05-13T02:56:33.238Z,4.72
2019-05-13T02:59:04.053Z,4.68
2019-05-13T03:01:33.556Z,4.55
2019-05-13T03:04:03.249Z,4.40
2019-05-13T03:06:33.458Z,4.49
2019-05-13T03:09:03.922Z,4.52
2019-05-13T03:11:33.395Z,4.52
2019-05-13T03:14:03.609Z,4.53
2019-05-13T03:16:55.158Z,4.57
2019-05-13T03:19:24.337Z,4.59
2019-05-13T03:21:53.876Z,4.60
2019-05-13T03:24:23.277Z,4.58
2019-05-13T03:26:53.475Z,4.44
2019-05-13T03:29:22.726Z,4.34
2019-05-13T03:31:55.950Z,4.34
2019-05-13T03:34:26.455Z,4.33
2019-05-13T03:36:56.840Z,4.31
2019-05-13T03:39:26.953Z,4.35
2019-05-13T03:41:58.682Z,4.35
2019-05-13T03:44:32.469Z,4.39
2019-05-13T03:47:04.306Z,4.32
2019-05-13T03:49:35.613Z,4.18
2019-05-13T03:52:05.096Z,4.09
2019-05-13T03:54:34.657Z,4.08
2019-05-13T03:57:04.240Z,4.16
2019-05-13T03:59:33.841Z,4.10
2019-05-13T04:02:03.515Z,4.06
2019-05-13T04:04:32.816Z,4.07
2019-05-13T04:07:02.873Z,4.25
2019-05-13T04:09:36.015Z,4.33
2019-05-13T04:12:03.619Z,4.42
2019-05-13T04:14:33.774Z,4.43
2019-05-13T04:17:03.514Z,4.43
2019-05-13T04:19:34.076Z,4.49
2019-05-13T04:22:03.683Z,4.55
2019-05-13T04:24:33.795Z,4.63
2019-05-13T04:27:03.437Z,4.66
2019-05-13T04:29:33.516Z,4.66
2019-05-13T04:32:03.027Z,4.67
2019-05-13T04:34:33.672Z,4.62
2019-05-13T04:37:03.568Z,4.67
2019-05-13T04:39:45.822Z,4.68
2019-05-13T04:42:03.704Z,4.68
2019-05-13T04:44:32.947Z,4.76
2019-05-13T04:47:03.663Z,4.83
2019-05-13T04:49:33.320Z,4.86
2019-05-13T04:52:03.621Z,4.95
2019-05-13T04:54:33.932Z,4.94
2019-05-13T04:57:03.522Z,5.00
2019-05-13T04:59:37.439Z,4.93
2019-05-13T05:02:29.942Z,5.05
2019-05-13T05:05:12.975Z,5.16
2019-05-13T05:08:04.207Z,5.22
2019-05-13T05:11:02.203Z,5.33
2019-05-13T05:14:02.493Z,5.42
2019-05-13T05:17:03.237Z,5.47
2019-05-13T05:20:08.215Z,7.34
2019-05-13T05:23:14.099Z,12.55
2019-05-13T05:26:13.568Z,16.56
2019-05-13T05:29:32.667Z,17.86
2019-05-13T05:32:28.774Z,19.06
2019-05-13T05:35:32.408Z,19.25
2019-05-13T05:38:31.782Z,18.36
2019-05-13T05:41:03.353Z,17.46
2019-05-13T05:43:33.660Z,15.98
2019-05-13T05:46:04.081Z,14.35
2019-05-13T05:48:34.872Z,12.83
2019-05-13T05:51:05.426Z,11.65
2019-05-13T05:53:37.701Z,11.41
2019-05-13T05:56:07.635Z,11.00
2019-05-13T05:58:37.695Z,10.54
2019-05-13T06:01:08.471Z,10.19
2019-05-13T06:03:38.813Z,9.92
2019-05-13T06:06:08.346Z,9.91
2019-05-13T06:08:37.597Z,9.88
2019-05-13T06:11:06.746Z,9.92
2019-05-13T06:13:38.953Z,10.08
2019-05-13T06:16:08.209Z,10.21
2019-05-13T06:18:37.435Z,10.25
2019-05-13T06:21:06.880Z,10.38
2019-05-13T06:23:36.112Z,10.35
2019-05-13T06:26:05.408Z,10.37
2019-05-13T06:28:36.956Z,10.60
2019-05-13T06:31:07.299Z,10.75
2019-05-13T06:33:36.499Z,10.80
2019-05-13T06:36:05.653Z,10.79
2019-05-13T06:38:35.180Z,10.71
2019-05-13T06:41:08.046Z,10.82
2019-05-13T06:43:35.239Z,10.85
2019-05-13T06:46:04.349Z,11.07
2019-05-13T06:48:33.568Z,11.13
2019-05-13T06:51:03.035Z,11.11
2019-05-13T06:53:32.643Z,11.46
2019-05-13T06:56:01.784Z,11.58
2019-05-13T06:58:32.507Z,12.05
2019-05-13T07:01:03.621Z,12.04
2019-05-13T07:03:32.754Z,11.53
2019-05-13T07:06:02.960Z,11.56
2019-05-13T07:08:32.217Z,11.68
2019-05-13T07:11:17.134Z,12.00
2019-05-13T07:13:32.464Z,11.91
2019-05-13T07:16:01.665Z,12.09
2019-05-13T07:18:32.316Z,12.12
2019-05-13T07:21:02.350Z,12.21
2019-05-13T07:23:32.015Z,12.52
2019-05-13T07:26:01.955Z,12.90
2019-05-13T07:28:32.257Z,12.89
2019-05-13T07:31:02.270Z,12.88
2019-05-13T07:33:32.176Z,13.01
2019-05-13T07:36:03.089Z,13.02
2019-05-13T07:38:33.218Z,12.53
2019-05-13T07:41:06.193Z,12.55
2019-05-13T07:43:36.057Z,12.65
2019-05-13T07:46:05.476Z,12.70
2019-05-13T07:48:34.831Z,13.14
2019-05-13T07:51:04.894Z,13.57
2019-05-13T07:53:34.230Z,13.54
2019-05-13T07:56:03.465Z,13.67
2019-05-13T07:58:37.232Z,13.57
2019-05-13T08:01:03.810Z,13.62
2019-05-13T08:03:33.089Z,14.05
2019-05-13T08:06:02.404Z,14.55
2019-05-13T08:08:32.463Z,14.46
2019-05-13T08:11:01.791Z,14.28
2019-05-13T08:13:31.573Z,15.03
2019-05-13T08:16:01.950Z,15.41
2019-05-13T08:18:32.040Z,15.36
2019-05-13T08:21:02.287Z,15.06
2019-05-13T08:23:32.360Z,15.40
2019-05-13T08:26:02.339Z,15.24
2019-05-13T08:28:32.438Z,15.31
2019-05-13T08:31:02.335Z,14.93
2019-05-13T08:33:34.412Z,15.11
2019-05-13T08:36:03.581Z,15.26
2019-05-13T08:38:33.093Z,16.09
2019-05-13T08:41:02.552Z,15.98
2019-05-13T08:43:31.965Z,16.37
2019-05-13T08:46:02.086Z,16.95
2019-05-13T08:48:32.384Z,16.43
2019-05-13T08:51:03.031Z,16.57
2019-05-13T08:53:32.906Z,17.16
2019-05-13T08:56:02.080Z,17.67
2019-05-13T08:58:32.036Z,17.36
2019-05-13T09:01:02.460Z,17.26
2019-05-13T09:03:32.593Z,17.09
2019-05-13T09:06:03.058Z,16.70
2019-05-13T09:08:32.327Z,16.12
2019-05-13T09:11:01.873Z,16.84
2019-05-13T09:13:33.048Z,17.39
2019-05-13T09:16:02.721Z,18.28
2019-05-13T09:18:32.326Z,18.98
2019-05-13T09:21:02.559Z,18.77
2019-05-13T09:23:32.037Z,17.77
2019-05-13T09:26:02.603Z,17.87
2019-05-13T09:28:32.598Z,18.25
2019-05-13T09:31:02.327Z,19.13
2019-05-13T09:33:32.624Z,17.77
2019-05-13T09:36:02.494Z,18.04
2019-05-13T09:38:32.639Z,17.51
2019-05-13T09:41:02.290Z,17.22
2019-05-13T09:43:31.854Z,17.19
2019-05-13T09:46:01.804Z,18.11
2019-05-13T09:48:31.919Z,18.81
2019-05-13T09:51:02.513Z,18.35
2019-05-13T09:53:32.705Z,16.92
2019-05-13T09:56:02.581Z,17.07
2019-05-13T09:58:33.019Z,16.79
2019-05-13T10:01:02.670Z,18.41
2019-05-13T10:03:33.038Z,18.24
2019-05-13T10:06:02.814Z,16.29
2019-05-13T10:08:32.773Z,16.45
2019-05-13T10:11:02.116Z,17.55
2019-05-13T10:13:31.823Z,17.04
2019-05-13T10:16:01.264Z,16.93
2019-05-13T10:18:32.718Z,17.06
2019-05-13T10:21:02.831Z,17.81
2019-05-13T10:23:33.337Z,18.08
2019-05-13T10:26:06.158Z,18.45
2019-05-13T10:28:35.591Z,18.36
2019-05-13T10:31:05.387Z,19.04
2019-05-13T10:33:34.643Z,18.88
2019-05-13T10:36:04.114Z,18.45
2019-05-13T10:38:33.864Z,19.10
2019-05-13T10:41:03.719Z,19.47
2019-05-13T10:43:40.060Z,19.62
2019-05-13T10:46:05.913Z,19.46
2019-05-13T10:48:35.189Z,19.62
2019-05-13T10:51:04.374Z,20.10
2019-05-13T10:53:33.524Z,20.09
2019-05-13T10:56:03.532Z,19.09
2019-05-13T10:58:32.831Z,18.11
2019-05-13T11:01:03.080Z,18.33
2019-05-13T11:03:33.133Z,18.14
2019-05-13T11:06:02.548Z,19.40
2019-05-13T11:08:33.102Z,18.77
2019-05-13T11:11:03.216Z,18.56
2019-05-13T11:13:50.688Z,19.39
2019-05-13T11:16:03.711Z,20.56
2019-05-13T11:18:33.397Z,20.76
2019-05-13T11:21:03.361Z,20.90
2019-05-13T11:23:35.020Z,20.36
2019-05-13T11:26:08.886Z,19.26
2019-05-13T11:28:39.058Z,18.85
2019-05-13T11:31:10.004Z,16.99
2019-05-13T11:33:42.310Z,17.88
2019-05-13T11:36:12.921Z,18.07
2019-05-13T11:38:43.319Z,18.11
2019-05-13T11:41:12.709Z,18.39
2019-05-13T11:43:42.620Z,17.67
2019-05-13T11:46:11.815Z,18.14
2019-05-13T11:48:42.553Z,17.84
2019-05-13T11:51:13.041Z,17.93
2019-05-13T11:53:42.624Z,18.35
2019-05-13T11:56:14.424Z,19.16
2019-05-13T11:58:43.712Z,19.38
2019-05-13T12:01:13.066Z,19.59
2019-05-13T12:03:43.399Z,20.01
2019-05-13T12:06:13.178Z,19.10
2019-05-13T12:08:49.981Z,19.08
2019-05-13T12:11:13.909Z,19.05
2019-05-13T12:13:43.458Z,18.96
2019-05-13T12:16:13.040Z,19.48
2019-05-13T12:18:43.867Z,19.41
2019-05-13T12:21:13.140Z,20.19
2019-05-13T12:23:42.927Z,20.29
2019-05-13T12:26:13.058Z,19.88
2019-05-13T12:28:42.475Z,20.29
2019-05-13T12:31:12.308Z,20.22
2019-05-13T12:33:44.074Z,18.66
2019-05-13T12:36:17.868Z,18.46
2019-05-13T12:38:44.248Z,18.38
2019-05-13T12:41:13.782Z,19.09
2019-05-13T12:43:43.107Z,18.48
2019-05-13T12:46:12.668Z,18.42
2019-05-13T12:48:41.993Z,18.72
2019-05-13T12:51:13.311Z,19.07
2019-05-13T12:53:43.478Z,19.76
2019-05-13T12:56:13.116Z,20.06
2019-05-13T12:58:42.327Z,19.60
2019-05-13T13:01:12.780Z,18.71
2019-05-13T13:03:42.146Z,19.07
2019-05-13T13:06:27.297Z,19.05
2019-05-13T13:08:48.531Z,19.52
2019-05-13T13:11:13.673Z,20.06
2019-05-13T13:13:57.974Z,18.62
2019-05-13T13:16:14.003Z,18.45
2019-05-13T13:18:43.788Z,19.58
2019-05-13T13:21:14.602Z,19.85
2019-05-13T13:23:43.991Z,19.73
2019-05-13T13:26:15.958Z,19.23
2019-05-13T13:28:44.116Z,18.81
2019-05-13T13:31:13.411Z,18.80
2019-05-13T13:33:44.491Z,18.81
2019-05-13T13:36:15.745Z,18.98
2019-05-13T13:38:44.674Z,19.64
2019-05-13T13:41:22.304Z,19.36
2019-05-13T13:43:44.990Z,19.33
2019-05-13T13:46:32.764Z,19.29
2019-05-13T13:48:45.182Z,19.47
2019-05-13T13:51:14.738Z,18.87
2019-05-13T13:53:44.871Z,18.67
2019-05-13T13:56:14.987Z,19.46
2019-05-13T13:58:44.450Z,19.91
2019-05-13T14:01:19.913Z,20.24
2019-05-13T14:03:45.946Z,19.73
2019-05-13T14:07:09.224Z,19.90
2019-05-13T14:08:46.721Z,20.18
2019-05-13T14:11:15.991Z,20.30
2019-05-13T14:13:45.156Z,20.19
2019-05-13T14:16:28.692Z,20.00
2019-05-13T14:18:45.550Z,20.24
2019-05-13T14:21:14.721Z,20.13
2019-05-13T14:23:44.102Z,19.56
2019-05-13T14:26:13.866Z,19.74
2019-05-13T14:28:43.585Z,19.81
2019-05-13T14:31:13.468Z,19.11
2019-05-13T14:33:42.855Z,19.23
2019-05-13T14:36:12.445Z,19.37
2019-05-13T14:38:42.247Z,19.75
2019-05-13T14:41:12.460Z,19.58
2019-05-13T14:43:44.521Z,19.37
2019-05-13T14:46:13.971Z,19.60
2019-05-13T14:48:43.442Z,19.70
2019-05-13T14:51:13.162Z,19.63
2019-05-13T14:53:42.637Z,19.93
2019-05-13T14:56:14.429Z,19.43
2019-05-13T14:58:43.873Z,19.46
2019-05-13T15:01:19.881Z,19.56
2019-05-13T15:03:44.720Z,18.98
2019-05-13T15:06:13.960Z,19.06
2019-05-13T15:08:43.645Z,19.53
2019-05-13T15:11:12.883Z,18.98
2019-05-13T15:13:42.654Z,19.17
2019-05-13T15:16:12.179Z,18.92
2019-05-13T15:18:41.792Z,18.75
2019-05-13T15:21:12.110Z,17.95
2019-05-13T15:23:42.246Z,17.67
2019-05-13T15:26:11.861Z,17.97
2019-05-13T15:28:42.168Z,18.03
2019-05-13T15:31:11.697Z,18.24
2019-05-13T15:33:41.750Z,17.95
2019-05-13T15:36:12.022Z,18.38
2019-05-13T15:38:41.613Z,18.28
2019-05-13T15:41:14.942Z,18.27
2019-05-13T15:43:42.525Z,18.35
2019-05-13T15:46:12.626Z,18.55
2019-05-13T15:48:42.249Z,18.65
2019-05-13T15:51:11.483Z,18.47
2019-05-13T15:53:43.546Z,18.65
2019-05-13T15:56:12.545Z,18.16
2019-05-13T15:58:44.648Z,18.17
2019-05-13T16:01:17.059Z,18.64
2019-05-13T16:03:46.484Z,19.09
2019-05-13T16:06:15.772Z,19.30
2019-05-13T16:08:44.992Z,19.79
2019-05-13T16:11:14.311Z,19.78
2019-05-13T16:13:43.760Z,19.97
2019-05-13T16:16:13.133Z,20.24
2019-05-13T16:18:42.392Z,19.90
2019-05-13T16:21:12.192Z,20.29
2019-05-13T16:23:42.826Z,20.28
2019-05-13T16:26:12.350Z,20.55
2019-05-13T16:28:42.074Z,20.55
2019-05-13T16:31:11.929Z,20.46
2019-05-13T16:33:41.796Z,20.57
2019-05-13T16:36:12.680Z,20.06
2019-05-13T16:38:42.504Z,20.19
2019-05-13T16:41:12.864Z,20.16
2019-05-13T16:43:42.815Z,20.51
2019-05-13T16:46:12.394Z,20.61
2019-05-13T16:48:41.816Z,20.45
2019-05-13T16:51:12.446Z,20.76
2019-05-13T16:53:42.540Z,20.99
2019-05-13T16:56:25.603Z,21.33
2019-05-13T16:58:42.868Z,21.23
2019-05-13T17:01:12.123Z,20.94
2019-05-13T17:03:41.729Z,20.79
2019-05-13T17:06:12.702Z,20.83
2019-05-13T17:08:42.737Z,20.86
2019-05-13T17:11:12.101Z,21.00
2019-05-13T17:13:42.395Z,21.30
2019-05-13T17:16:11.741Z,21.35
2019-05-13T17:18:41.654Z,21.43
2019-05-13T17:21:11.198Z,21.48
2019-05-13T17:23:41.841Z,21.56
2019-05-13T17:26:32.668Z,21.60
2019-05-13T17:29:02.240Z,20.96
2019-05-13T17:31:32.561Z,21.23
2019-05-13T17:34:02.137Z,20.97
2019-05-13T17:36:32.479Z,20.67
2019-05-13T17:39:02.039Z,20.38
2019-05-13T17:41:32.176Z,20.42
2019-05-13T17:44:21.878Z,19.56
2019-05-13T17:46:52.045Z,19.94
2019-05-13T17:49:22.145Z,19.15
2019-05-13T17:51:51.771Z,18.59
2019-05-13T17:54:22.192Z,18.06
2019-05-13T17:56:51.541Z,17.40
2019-05-13T17:59:21.784Z,16.75
2019-05-13T18:01:51.656Z,16.49
2019-05-13T18:04:22.594Z,16.36
2019-05-13T18:06:52.408Z,16.28
2019-05-13T18:09:22.363Z,16.20
2019-05-13T18:11:52.869Z,16.14
2019-05-13T18:14:22.245Z,15.95
2019-05-13T18:16:51.489Z,15.67
2019-05-13T18:19:22.129Z,15.62
2019-05-13T18:21:51.754Z,15.49
2019-05-13T18:24:21.348Z,15.38
2019-05-13T18:26:52.137Z,15.34
2019-05-13T18:29:22.724Z,15.28
2019-05-13T18:31:52.534Z,15.26
2019-05-13T18:34:21.827Z,15.21
2019-05-13T18:36:51.640Z,15.11
2019-05-13T18:39:21.603Z,14.89
2019-05-13T18:41:51.099Z,14.82
2019-05-13T18:44:20.677Z,14.79
2019-05-13T18:46:52.316Z,14.79
2019-05-13T18:49:21.162Z,14.67
2019-05-13T18:51:50.450Z,14.48
2019-05-13T18:54:19.744Z,14.35
2019-05-13T18:56:48.932Z,14.25
2019-05-13T18:59:18.242Z,14.28
2019-05-13T19:01:47.456Z,14.22
2019-05-13T19:04:16.944Z,14.10
2019-05-13T19:06:46.192Z,14.06
2019-05-13T19:09:15.404Z,14.00
2019-05-13T19:11:44.605Z,13.82
2019-05-13T19:14:13.925Z,13.79
2019-05-13T19:16:43.234Z,13.68
2019-05-13T19:19:15.918Z,13.57
2019-05-13T19:21:43.565Z,13.43
2019-05-13T19:24:13.564Z,13.28
2019-05-13T19:26:46.230Z,13.16
2019-05-13T19:29:15.639Z,13.05
2019-05-13T19:31:45.033Z,12.90
2019-05-13T19:34:14.373Z,12.77
2019-05-13T19:36:48.480Z,12.67
2019-05-13T19:39:17.884Z,12.54
2019-05-13T19:41:47.188Z,12.39
2019-05-13T19:44:16.440Z,12.29
2019-05-13T19:46:46.005Z,12.24
2019-05-13T19:49:28.821Z,12.15
2019-05-13T19:51:46.215Z,11.94
2019-05-13T19:54:15.592Z,11.78
2019-05-13T19:56:44.930Z,11.62
2019-05-13T19:59:14.205Z,11.56
2019-05-13T20:01:43.630Z,11.40
2019-05-13T20:04:12.868Z,11.20
2019-05-13T20:06:42.103Z,11.05
2019-05-13T20:09:11.238Z,10.90
2019-05-13T20:11:42.014Z,10.77
2019-05-13T20:14:12.160Z,10.69
2019-05-13T20:16:41.841Z,10.60
2019-05-13T20:19:11.834Z,10.54
2019-05-13T20:21:42.563Z,10.50
2019-05-13T20:24:12.052Z,10.36
2019-05-13T20:26:41.533Z,10.32
2019-05-13T20:29:12.323Z,10.25
2019-05-13T20:31:41.681Z,10.21
2019-05-13T20:34:11.803Z,10.18
2019-05-13T20:36:42.246Z,10.10
2019-05-13T20:39:11.724Z,9.95
2019-05-13T20:41:41.442Z,9.82
2019-05-13T20:44:10.723Z,9.64
2019-05-13T20:46:42.179Z,9.68
2019-05-13T20:49:12.041Z,9.68
2019-05-13T20:51:41.388Z,9.68
2019-05-13T20:54:11.405Z,9.66
2019-05-13T20:56:42.260Z,9.62
2019-05-13T20:59:11.567Z,9.58
2019-05-13T21:01:41.883Z,9.47
2019-05-13T21:04:12.333Z,9.44
2019-05-13T21:06:42.193Z,9.39
2019-05-13T21:09:16.698Z,9.33
2019-05-13T21:11:42.591Z,9.28
2019-05-13T21:14:11.925Z,9.18
2019-05-13T21:16:41.712Z,9.04
2019-05-13T21:19:12.400Z,8.95
2019-05-13T21:21:41.777Z,8.87
2019-05-13T21:24:11.046Z,8.86
2019-05-13T21:26:42.003Z,8.85
2019-05-13T21:29:11.225Z,8.89
2019-05-13T21:31:41.395Z,8.92
2019-05-13T21:34:11.895Z,8.90
2019-05-13T21:36:41.419Z,8.94
2019-05-13T21:39:12.464Z,8.91
2019-05-13T21:41:41.544Z,8.80
2019-05-13T21:44:12.006Z,8.74
2019-05-13T21:46:41.281Z,8.71
2019-05-13T21:49:11.827Z,8.63
2019-05-13T21:51:41.873Z,8.58
2019-05-13T21:54:11.798Z,8.56
2019-05-13T21:56:42.676Z,8.54
2019-05-13T21:59:12.207Z,8.52
2019-05-13T22:01:42.232Z,8.48
2019-05-13T22:04:12.362Z,8.42
2019-05-13T22:06:41.759Z,8.38
2019-05-13T22:09:11.818Z,8.37
2019-05-13T22:11:41.992Z,8.36
2019-05-13T22:14:11.565Z,8.37
2019-05-13T22:16:41.262Z,8.36
2019-05-13T22:19:12.200Z,8.35
2019-05-13T22:21:42.372Z,8.34
2019-05-13T22:24:11.880Z,8.33
2019-05-13T22:26:41.922Z,8.33
2019-05-13T22:29:11.379Z,8.31
2019-05-13T22:31:42.001Z,8.30
2019-05-13T22:34:12.155Z,8.27
2019-05-13T22:36:41.473Z,8.25
2019-05-13T22:39:11.530Z,8.15
2019-05-13T22:41:42.075Z,8.22
2019-05-13T22:44:11.853Z,8.19
2019-05-13T22:46:41.481Z,8.13
2019-05-13T22:49:11.672Z,8.09
2019-05-13T22:51:41.353Z,8.05
2019-05-13T22:54:11.854Z,7.94
2019-05-13T22:56:41.500Z,7.88
2019-05-13T22:59:12.315Z,7.85
2019-05-13T23:01:42.007Z,7.85
2019-05-13T23:04:11.577Z,7.89
2019-05-13T23:06:40.875Z,7.80
2019-05-13T23:09:12.324Z,7.83
2019-05-13T23:11:41.788Z,7.81
2019-05-13T23:14:13.425Z,7.74
2019-05-13T23:16:42.199Z,7.73
2019-05-13T23:19:11.630Z,7.77
2019-05-13T23:21:41.833Z,7.78
2019-05-13T23:24:11.403Z,7.77
2019-05-13T23:26:42.174Z,7.75
2019-05-13T23:29:11.543Z,7.71
2019-05-13T23:31:41.496Z,7.66
2019-05-13T23:34:12.088Z,7.63
2019-05-13T23:36:42.325Z,7.51
2019-05-13T23:39:11.834Z,7.41
2019-05-13T23:41:41.708Z,7.36
2019-05-13T23:44:23.669Z,7.32
2019-05-13T23:46:42.150Z,7.28
2019-05-13T23:49:11.868Z,7.35
2019-05-13T23:51:41.468Z,7.40
2019-05-13T23:54:12.275Z,7.40
2019-05-13T23:56:41.804Z,7.37
2019-05-13T23:59:11.457Z,7.34
